Bookmark and Share
Track history (hours):
 

Slotergracht

Last reported at 2014-Apr-19 13:33 UTC. Time now 2014-Apr-19 14:32 UTC.
Position N 57°21' E 011°28'.

Length 168 m; beam 25 m.

Type: Cargo ship. MMSI: 246456000.

NotesDate/timePositionNaut miles runAvg speedWind from/ knotsBaromVisibWave heightAir tempDewpointWater temp
2014-Apr-19 13:33N 57°21' E 011°28'1616.4
2014-Apr-19 12:34N 57°34' E 011°11'1817.5
2014-Apr-19 11:33N 57°46' E 010°47'1716.7
2014-Apr-19 10:33N 57°46' E 010°15'13015.7
2014-Apr-19 02:18N 56°12' E 007°29'1316.3
2014-Apr-19 01:30N 56°00' E 007°22'1516.1
2014-Apr-19 00:33N 55°45' E 007°14'1615.9
2014-Apr-18 23:33N 55°30' E 007°05'1615.9
2014-Apr-18 22:33N 55°15' E 006°57'1615.7
2014-Apr-18 21:33N 55°00' E 006°48'7815.1
2014-Apr-18 16:26N 53°44' E 006°23'10 7.9
2014-Apr-18 15:13N 53°37' E 006°33'1015.9
2014-Apr-18 14:33N 53°30' E 006°47'4 3.5
2014-Apr-18 13:32N 53°27' E 006°50'0 0.0
2014-Apr-18 12:32N 53°27' E 006°50'0 0.0
2014-Apr-18 11:31N 53°27' E 006°50'0 0.0
2014-Apr-18 10:31N 53°27' E 006°50'0 0.0
2014-Apr-18 09:31N 53°27' E 006°50'0 0.0
2014-Apr-18 08:31N 53°27' E 006°50'0 0.0
2014-Apr-18 07:31N 53°27' E 006°50'0 0.0
2014-Apr-18 06:31N 53°27' E 006°50'0 0.0
2014-Apr-18 05:31N 53°27' E 006°50'0 0.0
2014-Apr-18 04:31N 53°27' E 006°50'0 0.0
2014-Apr-18 03:31N 53°27' E 006°50'0 0.0
2014-Apr-18 02:31N 53°27' E 006°50'0 0.0
2014-Apr-18 01:31N 53°27' E 006°50'0 0.0
2014-Apr-18 00:31N 53°27' E 006°50'0 0.0
2014-Apr-17 23:31N 53°27' E 006°50'0 0.0
2014-Apr-17 22:31N 53°27' E 006°50'0 0.0
2014-Apr-17 21:31N 53°27' E 006°50'0 0.0
2014-Apr-17 20:31N 53°27' E 006°50'0 0.0
2014-Apr-17 19:31N 53°27' E 006°50'0 0.0
2014-Apr-17 18:28N 53°27' E 006°50'0 0.0
2014-Apr-17 17:31N 53°27' E 006°50'0 0.0
2014-Apr-17 16:31N 53°27' E 006°50'0 0.0
2014-Apr-17 15:31N 53°27' E 006°50'0 0.0
2014-Apr-17 14:31N 53°27' E 006°50'0 0.0
2014-Apr-17 13:31N 53°27' E 006°50'0 0.0
2014-Apr-17 12:28N 53°27' E 006°50'0 0.0
2014-Apr-17 11:31N 53°27' E 006°50'1 1.0
2014-Apr-17 10:33N 53°28' E 006°50'10 9.4
2014-Apr-17 09:33N 53°34' E 006°38'2712.8
2014-Apr-17 07:28N 53°38' E 005°54'1112.7
2014-Apr-17 06:33N 53°35' E 005°35'1313.2
2014-Apr-17 05:33N 53°32' E 005°14'1514.8
2014-Apr-17 04:34N 53°26' E 004°51'1716.6
2014-Apr-17 03:33N 53°13' E 004°34'1515.3
2014-Apr-17 02:33N 52°60' E 004°21'1515.0
2014-Apr-17 01:33N 52°47' E 004°08'1514.8
2014-Apr-17 00:33N 52°36' E 003°52'1514.8
2014-Apr-16 23:33N 52°25' E 003°34'1515.0
2014-Apr-16 22:33N 52°15' E 003°17'1514.7
2014-Apr-16 21:33N 52°03' E 003°03'1514.6
2014-Apr-16 20:33N 51°53' E 002°46'1614.6
2014-Apr-16 19:26N 51°41' E 002°29'1314.6
2014-Apr-16 18:33N 51°31' E 002°15'1615.6
2014-Apr-16 17:33N 51°16' E 002°07'1515.2
2014-Apr-16 16:33N 51°07' E 001°47'1615.7
2014-Apr-16 15:33N 50°55' E 001°30'3313.6
2014-Apr-16 13:07N 50°30' E 000°57'814.0
2014-Apr-16 12:33N 50°27' E 000°45'1513.7
2014-Apr-16 11:26N 50°23' E 000°23'3014.5
2014-Apr-16 09:22N 50°15' W 000°23'1315.7
2014-Apr-16 08:33N 50°11' W 000°42'1715.8
2014-Apr-16 07:29N 50°07' W 001°07'1615.6
2014-Apr-16 06:27N 50°03' W 001°32'2115.6
2014-Apr-16 05:07N 49°57' W 002°03'  

Dump ship's entire track history

sailing weather and tide predictions

Slotergracht — PDBP — position and weather